createdAt,value
2024-03-09T00:01:11.109Z,15.43
2024-03-09T00:03:38.893Z,15.32
2024-03-09T00:06:08.200Z,18.75
2024-03-09T00:08:36.198Z,17.48
2024-03-09T00:11:03.285Z,16.77
2024-03-09T00:13:30.883Z,17.23
2024-03-09T00:16:00.178Z,14.60
2024-03-09T00:18:36.643Z,14.07
2024-03-09T00:21:10.738Z,15.20
2024-03-09T00:23:37.867Z,15.65
2024-03-09T00:26:07.338Z,16.40
2024-03-09T00:28:34.446Z,16.08
2024-03-09T00:31:01.600Z,16.27
2024-03-09T00:33:28.541Z,17.77
2024-03-09T00:35:56.156Z,15.60
2024-03-09T00:38:23.002Z,13.93
2024-03-09T00:40:50.708Z,14.27
2024-03-09T00:43:17.646Z,15.02
2024-03-09T00:45:44.523Z,13.98
2024-03-09T00:48:11.407Z,14.73
2024-03-09T00:50:38.349Z,14.98
2024-03-09T00:53:05.514Z,15.68
2024-03-09T00:55:33.378Z,14.38
2024-03-09T00:58:00.492Z,14.07
2024-03-09T01:00:27.633Z,15.03
2024-03-09T01:02:54.747Z,13.73
2024-03-09T01:05:24.294Z,13.65
2024-03-09T01:07:52.258Z,13.40
2024-03-09T01:10:19.254Z,13.00
2024-03-09T01:12:46.296Z,13.55
2024-03-09T01:15:15.160Z,12.50
2024-03-09T01:17:42.400Z,12.93
2024-03-09T01:20:10.436Z,13.40
2024-03-09T01:22:38.442Z,13.93
2024-03-09T01:25:07.935Z,14.07
2024-03-09T01:27:35.929Z,14.45
2024-03-09T01:30:03.196Z,15.75
2024-03-09T01:32:30.387Z,13.18
2024-03-09T01:34:58.111Z,13.77
2024-03-09T01:37:25.986Z,13.45
2024-03-09T01:39:53.249Z,17.73
2024-03-09T01:42:20.434Z,14.98
2024-03-09T01:44:51.109Z,13.90
2024-03-09T01:47:24.920Z,14.20
2024-03-09T01:49:52.802Z,14.70
2024-03-09T01:52:21.070Z,14.57
2024-03-09T01:54:48.701Z,14.40
2024-03-09T01:57:15.586Z,14.13
2024-03-09T01:59:46.375Z,14.30
2024-03-09T02:02:13.436Z,13.80
2024-03-09T02:04:40.491Z,13.27
2024-03-09T02:07:07.876Z,13.40
2024-03-09T02:09:35.715Z,13.32
2024-03-09T02:12:06.923Z,14.23
2024-03-09T02:14:38.430Z,13.55
2024-03-09T02:17:12.136Z,13.18
2024-03-09T02:19:42.756Z,12.95
2024-03-09T02:22:11.755Z,13.00
2024-03-09T02:24:42.644Z,13.63
2024-03-09T02:27:10.371Z,14.40
2024-03-09T02:29:37.502Z,13.45
2024-03-09T02:32:05.837Z,13.15
2024-03-09T02:34:33.368Z,13.70
2024-03-09T02:37:00.402Z,12.45
2024-03-09T02:39:29.859Z,11.98
2024-03-09T02:42:00.285Z,13.40
2024-03-09T02:44:30.263Z,12.97
2024-03-09T02:46:57.270Z,13.20
2024-03-09T02:49:26.310Z,13.83
2024-03-09T02:51:55.272Z,13.52
2024-03-09T02:54:22.504Z,13.85
2024-03-09T02:56:51.064Z,14.27
2024-03-09T02:59:18.346Z,13.70
2024-03-09T03:01:48.527Z,14.07
2024-03-09T03:04:16.669Z,13.77
2024-03-09T03:06:45.169Z,14.70
2024-03-09T03:09:17.798Z,14.00
2024-03-09T03:11:45.733Z,14.20
2024-03-09T03:14:13.242Z,13.95
2024-03-09T03:16:40.578Z,13.90
2024-03-09T03:19:08.821Z,14.85
2024-03-09T03:21:36.588Z,22.97
2024-03-09T03:24:04.157Z,24.63
2024-03-09T03:26:33.795Z,25.67
2024-03-09T03:29:03.155Z,26.20
2024-03-09T03:31:30.733Z,27.10
2024-03-09T03:33:58.468Z,25.37
2024-03-09T03:36:25.727Z,25.77
2024-03-09T03:38:52.782Z,25.70
2024-03-09T03:41:20.952Z,25.67
2024-03-09T03:43:48.231Z,25.63
2024-03-09T03:46:15.439Z,25.13
2024-03-09T03:48:47.900Z,24.77
2024-03-09T03:51:15.848Z,25.60
2024-03-09T03:53:43.380Z,26.17
2024-03-09T03:56:10.768Z,25.30
2024-03-09T03:58:40.832Z,24.80
2024-03-09T04:01:07.898Z,24.97
2024-03-09T04:03:39.330Z,24.60
2024-03-09T04:06:07.445Z,25.47
2024-03-09T04:08:34.798Z,24.27
2024-03-09T04:11:02.105Z,24.27
2024-03-09T04:13:29.192Z,24.57
2024-03-09T04:15:57.262Z,24.47
2024-03-09T04:18:24.473Z,24.37
2024-03-09T04:20:51.631Z,24.67
2024-03-09T04:23:18.843Z,24.73
2024-03-09T04:25:50.245Z,25.47
2024-03-09T04:28:24.132Z,24.70
2024-03-09T04:30:51.463Z,24.43
2024-03-09T04:33:20.357Z,24.73
2024-03-09T04:35:50.968Z,24.70
2024-03-09T04:38:18.307Z,24.73
2024-03-09T04:40:46.971Z,24.23
2024-03-09T04:43:14.803Z,24.63
2024-03-09T04:45:42.050Z,24.97
2024-03-09T04:48:11.537Z,24.03
2024-03-09T04:53:08.079Z,23.20
2024-03-09T04:55:37.561Z,23.93
2024-03-09T04:58:15.825Z,24.05
2024-03-09T05:00:43.439Z,23.70
2024-03-09T05:03:14.411Z,22.93
2024-03-09T05:05:42.195Z,24.27
2024-03-09T05:08:09.686Z,25.53
2024-03-09T05:10:38.440Z,27.03
2024-03-09T05:13:08.056Z,25.47
2024-03-09T05:15:35.670Z,26.50
2024-03-09T05:18:13.183Z,25.70
2024-03-09T05:20:40.905Z,25.57
2024-03-09T05:23:14.907Z,26.50
2024-03-09T05:25:44.176Z,25.60
2024-03-09T05:28:16.185Z,27.40
2024-03-09T05:30:45.095Z,25.47
2024-03-09T05:33:13.312Z,25.23
2024-03-09T05:35:40.745Z,35.57
2024-03-09T05:38:11.026Z,25.37
2024-03-09T05:40:38.583Z,26.97
2024-03-09T05:43:08.636Z,25.30
2024-03-09T05:45:37.469Z,25.40
2024-03-09T05:48:04.967Z,26.27
2024-03-09T05:50:32.279Z,25.17
2024-03-09T05:53:01.287Z,26.33
2024-03-09T05:55:28.673Z,25.02
2024-03-09T05:57:56.326Z,26.27
2024-03-09T06:00:29.772Z,25.00
2024-03-09T06:02:57.752Z,25.83
2024-03-09T06:05:29.718Z,25.43
2024-03-09T06:07:57.254Z,24.77
2024-03-09T06:10:25.948Z,24.43
2024-03-09T06:12:53.801Z,25.03
2024-03-09T06:15:22.025Z,23.83
2024-03-09T06:17:49.511Z,25.20
2024-03-09T06:20:17.471Z,25.33
2024-03-09T06:22:47.147Z,25.40
2024-03-09T06:27:42.550Z,32.23
2024-03-09T06:30:16.752Z,22.77
2024-03-09T06:32:48.183Z,22.83
2024-03-09T06:35:15.261Z,23.60
2024-03-09T06:37:42.300Z,23.63
2024-03-09T06:40:10.264Z,23.20
2024-03-09T06:42:37.312Z,24.27
2024-03-09T06:45:04.954Z,23.47
2024-03-09T06:47:32.905Z,24.00
2024-03-09T06:50:01.689Z,22.97
2024-03-09T06:52:30.373Z,23.43
2024-03-09T06:54:58.270Z,23.80
2024-03-09T06:57:25.365Z,23.33
2024-03-09T06:59:52.545Z,23.67
2024-03-09T07:02:20.560Z,23.20
2024-03-09T07:04:51.856Z,22.80
2024-03-09T07:07:19.117Z,21.43
2024-03-09T07:09:51.149Z,21.30
2024-03-09T07:12:18.891Z,22.60
2024-03-09T07:14:46.659Z,20.97
2024-03-09T07:17:19.193Z,20.90
2024-03-09T07:19:50.061Z,21.10
2024-03-09T07:22:16.958Z,20.77
2024-03-09T07:24:44.082Z,21.47
2024-03-09T07:27:13.304Z,21.33
2024-03-09T07:29:40.225Z,20.27
2024-03-09T07:32:10.667Z,20.23
2024-03-09T07:34:39.558Z,20.40
2024-03-09T07:37:06.418Z,20.60
2024-03-09T07:39:39.633Z,20.17
2024-03-09T07:42:07.357Z,19.10
2024-03-09T07:44:34.279Z,22.50
2024-03-09T07:47:01.750Z,20.30
2024-03-09T07:49:28.682Z,18.90
2024-03-09T07:51:57.452Z,18.97
2024-03-09T07:54:24.415Z,19.10
2024-03-09T07:56:51.360Z,24.63
2024-03-09T07:59:18.543Z,24.87
2024-03-09T08:01:49.087Z,18.45
2024-03-09T08:04:16.218Z,19.35
2024-03-09T08:06:44.558Z,21.30
2024-03-09T08:09:15.083Z,19.77
2024-03-09T08:11:42.969Z,19.70
2024-03-09T08:14:09.973Z,19.80
2024-03-09T08:16:37.247Z,19.97
2024-03-09T08:19:04.267Z,26.37
2024-03-09T08:21:31.565Z,19.43
2024-03-09T08:23:58.984Z,26.27
2024-03-09T08:26:26.254Z,21.67
2024-03-09T08:28:53.844Z,16.67
2024-03-09T08:31:20.818Z,17.33
2024-03-09T08:33:48.784Z,17.10
2024-03-09T08:36:16.150Z,18.40
2024-03-09T08:38:43.082Z,17.80
2024-03-09T08:41:10.025Z,16.92
2024-03-09T08:43:37.084Z,16.92
2024-03-09T08:46:04.907Z,17.25
2024-03-09T08:48:31.744Z,16.90
2024-03-09T08:51:01.115Z,19.58
2024-03-09T08:53:28.552Z,17.10
2024-03-09T08:55:55.608Z,19.85
2024-03-09T08:58:22.521Z,16.95
2024-03-09T09:00:49.942Z,17.20
2024-03-09T09:03:19.221Z,16.52
2024-03-09T09:05:47.232Z,16.88
2024-03-09T09:08:26.252Z,16.80
2024-03-09T09:10:55.433Z,19.58
2024-03-09T09:13:25.443Z,18.23
2024-03-09T09:15:53.490Z,13.93
2024-03-09T09:18:20.624Z,15.10
2024-03-09T09:20:55.919Z,14.27
2024-03-09T09:23:22.828Z,15.20
2024-03-09T09:25:49.762Z,14.80
2024-03-09T09:28:17.725Z,13.70
2024-03-09T09:30:48.047Z,13.35
2024-03-09T09:33:15.587Z,14.77
2024-03-09T09:35:42.690Z,13.65
2024-03-09T09:38:09.636Z,14.63
2024-03-09T09:40:36.749Z,14.60
2024-03-09T09:43:03.927Z,13.43
2024-03-09T09:45:35.263Z,13.55
2024-03-09T09:48:03.306Z,13.48
2024-03-09T09:50:35.774Z,14.48
2024-03-09T09:53:02.811Z,13.80
2024-03-09T09:55:31.215Z,13.75
2024-03-09T09:57:58.667Z,12.95
2024-03-09T10:00:25.837Z,12.63
2024-03-09T10:02:59.038Z,13.50
2024-03-09T10:05:30.703Z,11.40
2024-03-09T10:08:15.797Z,13.20
2024-03-09T10:10:45.149Z,12.05
2024-03-09T10:13:13.085Z,12.65
2024-03-09T10:15:42.629Z,13.50
2024-03-09T10:18:10.083Z,18.13
2024-03-09T10:20:37.647Z,16.33
2024-03-09T10:23:06.502Z,13.18
2024-03-09T10:25:37.411Z,13.55
2024-03-09T10:28:06.853Z,15.95
2024-03-09T10:30:34.078Z,13.02
2024-03-09T10:33:01.155Z,13.50
2024-03-09T10:35:28.860Z,13.48
2024-03-09T10:37:59.292Z,14.45
2024-03-09T10:40:27.236Z,13.40
2024-03-09T10:42:54.714Z,13.60
2024-03-09T10:45:26.277Z,13.38
2024-03-09T10:47:58.157Z,14.02
2024-03-09T10:50:28.800Z,14.23
2024-03-09T10:53:11.426Z,13.13
2024-03-09T10:56:01.119Z,13.77
2024-03-09T10:58:29.442Z,18.55
2024-03-09T11:00:56.360Z,17.02
2024-03-09T11:03:25.214Z,16.52
2024-03-09T11:05:56.753Z,16.05
2024-03-09T11:08:23.921Z,14.43
2024-03-09T11:10:51.443Z,17.85
2024-03-09T11:13:20.001Z,19.42
2024-03-09T11:15:53.378Z,19.90
2024-03-09T11:18:23.637Z,17.02
2024-03-09T11:21:01.868Z,21.23
2024-03-09T11:23:32.737Z,16.08
2024-03-09T11:26:00.549Z,15.80
2024-03-09T11:28:29.045Z,16.03
2024-03-09T11:31:12.244Z,17.30
2024-03-09T11:33:50.746Z,17.37
2024-03-09T11:39:06.322Z,15.68
2024-03-09T11:41:37.255Z,13.77
2024-03-09T11:44:07.806Z,14.05
2024-03-09T11:46:37.876Z,12.60
2024-03-09T11:49:05.084Z,13.38
2024-03-09T11:51:40.910Z,14.48
2024-03-09T11:54:11.033Z,14.68
2024-03-09T11:56:39.446Z,13.70
2024-03-09T11:59:09.402Z,14.35
2024-03-09T12:01:36.691Z,13.98
2024-03-09T12:04:06.599Z,15.25
2024-03-09T12:06:34.153Z,14.75
2024-03-09T12:09:01.436Z,13.60
2024-03-09T12:11:34.128Z,16.00
2024-03-09T12:14:04.089Z,15.32
2024-03-09T12:16:30.961Z,15.00
2024-03-09T12:18:59.901Z,13.60
2024-03-09T12:21:27.990Z,17.35
2024-03-09T12:23:55.996Z,24.17
2024-03-09T12:26:23.633Z,23.92
2024-03-09T12:28:51.129Z,30.95
2024-03-09T12:31:18.017Z,24.70
2024-03-09T12:33:45.268Z,24.00
2024-03-09T12:36:12.710Z,24.52
2024-03-09T12:38:39.746Z,27.05
2024-03-09T12:41:29.638Z,29.10
2024-03-09T12:44:01.840Z,24.10
2024-03-09T12:46:29.941Z,25.67
2024-03-09T12:48:58.744Z,25.17
2024-03-09T12:51:25.707Z,26.40
2024-03-09T12:53:59.390Z,24.05
2024-03-09T12:56:34.015Z,29.73
2024-03-09T12:59:02.391Z,24.63
2024-03-09T13:01:32.789Z,24.80
2024-03-09T13:04:13.198Z,18.75
2024-03-09T13:06:43.083Z,16.52
2024-03-09T13:09:16.417Z,16.92
2024-03-09T13:11:50.753Z,15.55
2024-03-09T13:14:23.279Z,14.30
2024-03-09T13:16:51.625Z,13.90
2024-03-09T13:19:19.062Z,13.50
2024-03-09T13:21:53.178Z,16.52
2024-03-09T13:24:23.728Z,14.90
2024-03-09T13:26:54.886Z,15.27
2024-03-09T13:29:30.096Z,23.05
2024-03-09T13:31:58.324Z,16.95
2024-03-09T13:34:26.808Z,20.38
2024-03-09T13:36:54.465Z,18.08
2024-03-09T13:39:28.603Z,16.50
2024-03-09T13:41:55.865Z,15.95
2024-03-09T13:44:25.931Z,13.93
2024-03-09T13:46:53.774Z,17.58
2024-03-09T13:49:21.510Z,16.58
2024-03-09T13:51:48.600Z,17.45
2024-03-09T13:54:19.469Z,15.82
2024-03-09T13:56:47.338Z,16.08
2024-03-09T13:59:18.370Z,13.57
2024-03-09T14:01:46.138Z,16.02
2024-03-09T14:04:14.245Z,15.48
2024-03-09T14:06:56.521Z,14.60
2024-03-09T14:09:31.955Z,16.13
2024-03-09T14:11:59.702Z,17.45
2024-03-09T14:14:27.160Z,14.43
2024-03-09T14:16:56.411Z,13.68
2024-03-09T14:19:23.442Z,13.23
2024-03-09T14:21:52.078Z,17.92
2024-03-09T14:24:19.924Z,14.43
2024-03-09T14:26:47.193Z,13.45
2024-03-09T14:29:17.303Z,14.55
2024-03-09T14:31:48.300Z,13.65
2024-03-09T14:34:15.801Z,13.18
2024-03-09T14:36:45.221Z,14.77
2024-03-09T14:39:18.354Z,14.52
2024-03-09T14:41:45.677Z,15.20
2024-03-09T14:44:12.734Z,13.93
2024-03-09T14:46:41.356Z,14.93
2024-03-09T14:49:10.687Z,19.65
2024-03-09T14:51:37.976Z,13.80
2024-03-09T14:54:05.647Z,15.30
2024-03-09T14:56:32.508Z,14.52
2024-03-09T14:59:06.353Z,14.00
2024-03-09T15:01:33.420Z,13.38
2024-03-09T15:04:00.391Z,13.50
2024-03-09T15:06:28.613Z,15.20
2024-03-09T15:08:59.935Z,14.75
2024-03-09T15:11:27.634Z,15.13
2024-03-09T15:13:55.593Z,15.93
2024-03-09T15:16:24.250Z,14.40
2024-03-09T15:18:54.227Z,15.18
2024-03-09T15:21:26.516Z,15.20
2024-03-09T15:23:55.363Z,18.45
2024-03-09T15:26:27.668Z,13.55
2024-03-09T15:28:57.620Z,13.98
2024-03-09T15:31:24.995Z,14.40
2024-03-09T15:33:54.696Z,18.08
2024-03-09T15:36:22.023Z,14.90
2024-03-09T15:38:49.673Z,16.83
2024-03-09T15:41:17.627Z,14.60
2024-03-09T15:43:48.032Z,14.75
2024-03-09T15:46:20.034Z,14.40
2024-03-09T15:48:48.057Z,15.93
2024-03-09T15:51:15.817Z,16.20
2024-03-09T15:53:43.440Z,14.38
2024-03-09T15:56:11.569Z,14.88
2024-03-09T15:58:41.861Z,15.27
2024-03-09T16:01:09.845Z,16.13
2024-03-09T16:03:38.203Z,14.98
2024-03-09T16:06:05.562Z,18.90
2024-03-09T16:08:34.741Z,19.52
2024-03-09T16:11:04.544Z,28.02
2024-03-09T16:16:08.551Z,28.73
2024-03-09T16:18:35.973Z,23.33
2024-03-09T16:21:08.812Z,25.27
2024-03-09T16:23:41.205Z,18.65
2024-03-09T16:26:09.271Z,17.38
2024-03-09T16:28:38.866Z,25.08
2024-03-09T16:31:06.568Z,18.15
2024-03-09T16:33:34.482Z,17.38
2024-03-09T16:36:03.760Z,18.83
2024-03-09T16:38:31.126Z,16.67
2024-03-09T16:40:58.403Z,15.63
2024-03-09T16:43:33.120Z,23.70
2024-03-09T16:46:07.169Z,18.42
2024-03-09T16:48:38.751Z,19.50
2024-03-09T16:51:10.164Z,19.42
2024-03-09T16:53:41.017Z,22.20
2024-03-09T16:56:09.981Z,22.25
2024-03-09T16:58:36.937Z,20.90
2024-03-09T17:01:06.087Z,22.20
2024-03-09T17:03:34.216Z,22.00
2024-03-09T17:06:01.731Z,21.85
2024-03-09T17:08:30.514Z,23.17
2024-03-09T17:10:58.919Z,19.57
2024-03-09T17:13:25.886Z,22.02
2024-03-09T17:15:52.766Z,20.80
2024-03-09T17:18:23.077Z,23.88
2024-03-09T17:20:54.060Z,17.70
2024-03-09T17:23:22.028Z,17.30
2024-03-09T17:25:49.682Z,16.75
2024-03-09T17:28:21.773Z,21.50
2024-03-09T17:30:50.310Z,20.10
2024-03-09T17:33:18.017Z,15.13
2024-03-09T17:35:45.291Z,16.70
2024-03-09T17:38:12.405Z,16.67
2024-03-09T17:40:41.384Z,15.68
2024-03-09T17:43:11.276Z,15.75
2024-03-09T17:45:38.976Z,23.63
2024-03-09T17:48:09.392Z,19.45
2024-03-09T17:50:37.673Z,20.88
2024-03-09T17:53:06.994Z,20.30
2024-03-09T17:55:34.238Z,21.83
2024-03-09T17:58:09.724Z,21.63
2024-03-09T18:00:38.675Z,30.17
2024-03-09T18:03:06.327Z,20.60
2024-03-09T18:05:39.089Z,22.65
2024-03-09T18:08:10.404Z,21.80
2024-03-09T18:10:41.821Z,21.67
2024-03-09T18:13:11.306Z,21.70
2024-03-09T18:15:38.648Z,20.17
2024-03-09T18:18:12.604Z,28.95
2024-03-09T18:20:43.238Z,21.63
2024-03-09T18:23:11.165Z,21.27
2024-03-09T18:25:38.395Z,23.17
2024-03-09T18:28:07.474Z,24.38
2024-03-09T18:30:36.268Z,22.98
2024-03-09T18:33:08.142Z,20.87
2024-03-09T18:35:35.669Z,23.10
2024-03-09T18:38:04.237Z,21.63
2024-03-09T18:40:32.015Z,21.98
2024-03-09T18:43:00.183Z,22.77
2024-03-09T18:45:30.078Z,19.90
2024-03-09T18:47:58.874Z,21.50
2024-03-09T18:50:29.187Z,21.23
2024-03-09T18:53:00.708Z,21.30
2024-03-09T18:55:29.242Z,20.00
2024-03-09T18:57:56.683Z,23.55
2024-03-09T19:00:31.607Z,29.95
2024-03-09T19:02:59.584Z,25.80
2024-03-09T19:05:29.097Z,21.20
2024-03-09T19:07:57.093Z,21.77
2024-03-09T19:10:24.594Z,28.30
2024-03-09T19:12:52.864Z,20.88
2024-03-09T19:15:24.395Z,22.27
2024-03-09T19:17:52.401Z,24.85
2024-03-09T19:20:26.329Z,22.52
2024-03-09T19:22:54.158Z,22.17
2024-03-09T19:25:21.833Z,22.60
2024-03-09T19:27:49.024Z,22.73
2024-03-09T19:30:17.463Z,21.83
2024-03-09T19:32:46.018Z,22.00
2024-03-09T19:35:17.464Z,26.90
2024-03-09T19:37:45.211Z,22.23
2024-03-09T19:40:15.635Z,22.30
2024-03-09T19:42:46.919Z,21.70
2024-03-09T19:45:19.654Z,29.70
2024-03-09T19:47:48.954Z,22.42
2024-03-09T19:50:19.448Z,22.73
2024-03-09T19:52:50.576Z,22.83
2024-03-09T19:55:19.379Z,21.90
2024-03-09T19:57:49.685Z,32.22
2024-03-09T20:00:22.050Z,23.42
2024-03-09T20:02:52.264Z,22.15
2024-03-09T20:05:23.422Z,24.58
2024-03-09T20:07:57.523Z,25.77
2024-03-09T20:10:26.235Z,29.85
2024-03-09T20:12:55.948Z,24.30
2024-03-09T20:15:23.077Z,24.35
2024-03-09T20:17:55.964Z,24.00
2024-03-09T20:20:24.468Z,26.60
2024-03-09T20:22:58.954Z,29.50
2024-03-09T20:25:26.149Z,22.90
2024-03-09T20:27:53.156Z,21.48
2024-03-09T20:30:23.122Z,24.35
2024-03-09T20:32:51.260Z,19.88
2024-03-09T20:35:21.367Z,19.70
2024-03-09T20:37:49.195Z,20.25
2024-03-09T20:40:17.476Z,19.63
2024-03-09T20:42:50.061Z,21.95
2024-03-09T20:45:18.481Z,24.83
2024-03-09T20:47:46.373Z,19.70
2024-03-09T20:50:17.463Z,19.60
2024-03-09T20:52:54.085Z,20.27
2024-03-09T20:55:21.544Z,20.67
2024-03-09T20:57:48.909Z,23.45
2024-03-09T21:00:19.260Z,26.50
2024-03-09T21:02:46.880Z,22.50
2024-03-09T21:05:14.330Z,23.10
2024-03-09T21:07:44.406Z,22.58
2024-03-09T21:10:12.922Z,20.92
2024-03-09T21:12:40.876Z,19.88
2024-03-09T21:15:08.185Z,20.05
2024-03-09T21:17:35.984Z,22.40
2024-03-09T21:20:05.825Z,22.95
2024-03-09T21:24:59.794Z,20.90
2024-03-09T21:27:26.918Z,20.88
2024-03-09T21:29:55.214Z,21.08
2024-03-09T21:32:22.249Z,20.35
2024-03-09T21:34:49.783Z,20.92
2024-03-09T21:37:16.726Z,19.90
2024-03-09T21:39:44.176Z,25.45
2024-03-09T21:42:15.786Z,20.17
2024-03-09T21:44:42.793Z,21.35
2024-03-09T21:47:10.522Z,20.90
2024-03-09T21:49:37.569Z,21.77
2024-03-09T21:52:04.733Z,20.50
2024-03-09T21:54:33.761Z,20.60
2024-03-09T21:57:00.993Z,20.40
2024-03-09T21:59:27.884Z,20.42
2024-03-09T22:01:55.782Z,20.50
2024-03-09T22:04:23.015Z,21.05
2024-03-09T22:06:49.870Z,20.77
2024-03-09T22:09:16.778Z,21.45
2024-03-09T22:11:43.790Z,21.67
2024-03-09T22:14:10.896Z,24.38
2024-03-09T22:16:37.835Z,24.38
2024-03-09T22:19:07.911Z,25.60
2024-03-09T22:21:35.887Z,26.92
2024-03-09T22:24:04.066Z,25.50
2024-03-09T22:26:31.449Z,25.73
2024-03-09T22:28:59.382Z,29.80
2024-03-09T22:31:27.049Z,24.33
2024-03-09T22:33:54.840Z,27.58
2024-03-09T22:36:22.016Z,21.38
2024-03-09T22:38:49.571Z,24.15
2024-03-09T22:41:17.012Z,21.85
2024-03-09T22:43:44.048Z,21.05
2024-03-09T22:46:12.435Z,21.98
2024-03-09T22:48:39.427Z,22.50
2024-03-09T22:51:06.684Z,29.98
2024-03-09T22:53:34.486Z,37.85
2024-03-09T22:56:02.502Z,30.52
2024-03-09T22:58:29.428Z,28.55
2024-03-09T23:01:14.946Z,28.10
2024-03-09T23:03:41.999Z,28.05
2024-03-09T23:06:08.925Z,29.65
2024-03-09T23:08:35.876Z,28.77
2024-03-09T23:11:02.918Z,36.95
2024-03-09T23:13:31.638Z,29.77
2024-03-09T23:15:59.833Z,26.80
2024-03-09T23:18:26.972Z,27.63
2024-03-09T23:20:53.885Z,29.25
2024-03-09T23:23:21.071Z,27.98
2024-03-09T23:25:48.445Z,27.40
2024-03-09T23:28:15.420Z,26.60
2024-03-09T23:30:42.481Z,26.73
2024-03-09T23:33:09.457Z,30.65
2024-03-09T23:35:36.795Z,26.77
2024-03-09T23:38:06.811Z,26.20
2024-03-09T23:40:33.784Z,25.90
2024-03-09T23:43:00.617Z,27.20
2024-03-09T23:45:28.687Z,26.33
2024-03-09T23:47:55.542Z,25.20
2024-03-09T23:50:24.072Z,25.55
2024-03-09T23:52:53.204Z,27.45
2024-03-09T23:55:21.921Z,28.08
2024-03-09T23:57:49.586Z,28.00
